sensor_id;sensor_type;location;lat;lon;timestamp;P1;durP1;ratioP1;P2;durP2;ratioP2
25301;SDS011;13243;50.888;4.724;2023-02-28T00:00:37;11.32;;;5.75;;
25301;SDS011;13243;50.888;4.724;2023-02-28T00:05:39;7.78;;;5.22;;
25301;SDS011;13243;50.888;4.724;2023-02-28T00:10:42;10.50;;;5.60;;
25301;SDS011;13243;50.888;4.724;2023-02-28T00:15:44;9.88;;;5.82;;
25301;SDS011;13243;50.888;4.724;2023-02-28T00:20:47;11.77;;;5.82;;
25301;SDS011;13243;50.888;4.724;2023-02-28T00:25:48;11.13;;;6.13;;
25301;SDS011;13243;50.888;4.724;2023-02-28T00:30:51;11.27;;;5.22;;
25301;SDS011;13243;50.888;4.724;2023-02-28T00:36:00;10.00;;;5.35;;
25301;SDS011;13243;50.888;4.724;2023-02-28T00:41:05;7.90;;;4.53;;
25301;SDS011;13243;50.888;4.724;2023-02-28T00:46:07;8.30;;;4.70;;
25301;SDS011;13243;50.888;4.724;2023-02-28T00:51:09;12.13;;;4.80;;
25301;SDS011;13243;50.888;4.724;2023-02-28T00:56:11;10.32;;;5.20;;
25301;SDS011;13243;50.888;4.724;2023-02-28T01:01:13;9.85;;;5.07;;
25301;SDS011;13243;50.888;4.724;2023-02-28T01:06:14;12.98;;;4.97;;
25301;SDS011;13243;50.888;4.724;2023-02-28T01:11:16;9.35;;;5.07;;
25301;SDS011;13243;50.888;4.724;2023-02-28T01:16:18;7.95;;;4.97;;
25301;SDS011;13243;50.888;4.724;2023-02-28T01:21:21;11.85;;;5.13;;
25301;SDS011;13243;50.888;4.724;2023-02-28T01:26:23;10.23;;;5.75;;
25301;SDS011;13243;50.888;4.724;2023-02-28T01:31:25;11.90;;;5.72;;
25301;SDS011;13243;50.888;4.724;2023-02-28T01:36:28;11.30;;;5.28;;
25301;SDS011;13243;50.888;4.724;2023-02-28T01:41:31;10.75;;;4.95;;
25301;SDS011;13243;50.888;4.724;2023-02-28T01:46:35;10.40;;;6.03;;
25301;SDS011;13243;50.888;4.724;2023-02-28T01:51:41;9.45;;;5.20;;
25301;SDS011;13243;50.888;4.724;2023-02-28T01:56:56;14.27;;;5.35;;
25301;SDS011;13243;50.888;4.724;2023-02-28T02:02:02;17.77;;;5.47;;
25301;SDS011;13243;50.888;4.724;2023-02-28T02:07:04;11.15;;;5.70;;
25301;SDS011;13243;50.888;4.724;2023-02-28T02:12:10;11.95;;;5.50;;
25301;SDS011;13243;50.888;4.724;2023-02-28T02:44:47;9.10;;;5.65;;
25301;SDS011;13243;50.888;4.724;2023-02-28T02:49:55;8.30;;;4.53;;
25301;SDS011;13243;50.888;4.724;2023-02-28T02:55:00;9.48;;;5.38;;
25301;SDS011;13243;50.888;4.724;2023-02-28T03:00:05;17.05;;;5.60;;
25301;SDS011;13243;50.888;4.724;2023-02-28T03:05:30;10.77;;;5.60;;
25301;SDS011;13243;50.888;4.724;2023-02-28T03:10:46;12.35;;;5.78;;
25301;SDS011;13243;50.888;4.724;2023-02-28T03:21:46;13.02;;;6.35;;
25301;SDS011;13243;50.888;4.724;2023-02-28T03:32:26;15.18;;;6.60;;
25301;SDS011;13243;50.888;4.724;2023-02-28T03:37:53;13.60;;;5.90;;
25301;SDS011;13243;50.888;4.724;2023-02-28T03:43:04;14.30;;;6.88;;
25301;SDS011;13243;50.888;4.724;2023-02-28T03:48:13;11.87;;;5.33;;
25301;SDS011;13243;50.888;4.724;2023-02-28T03:53:44;18.52;;;6.43;;
25301;SDS011;13243;50.888;4.724;2023-02-28T03:59:15;12.20;;;7.20;;
25301;SDS011;13243;50.888;4.724;2023-02-28T04:04:19;17.88;;;7.28;;
25301;SDS011;13243;50.888;4.724;2023-02-28T04:09:20;13.55;;;6.25;;
25301;SDS011;13243;50.888;4.724;2023-02-28T04:14:22;22.52;;;7.35;;
25301;SDS011;13243;50.888;4.724;2023-02-28T04:19:24;17.23;;;6.97;;
25301;SDS011;13243;50.888;4.724;2023-02-28T04:24:27;13.50;;;7.93;;
25301;SDS011;13243;50.888;4.724;2023-02-28T04:29:32;15.77;;;7.57;;
25301;SDS011;13243;50.888;4.724;2023-02-28T04:34:34;16.25;;;7.05;;
25301;SDS011;13243;50.888;4.724;2023-02-28T04:39:39;15.73;;;7.80;;
25301;SDS011;13243;50.888;4.724;2023-02-28T04:44:41;15.25;;;8.10;;
25301;SDS011;13243;50.888;4.724;2023-02-28T04:49:43;15.95;;;8.30;;
25301;SDS011;13243;50.888;4.724;2023-02-28T04:54:45;20.83;;;9.25;;
25301;SDS011;13243;50.888;4.724;2023-02-28T04:59:47;13.80;;;8.05;;
25301;SDS011;13243;50.888;4.724;2023-02-28T05:04:48;21.08;;;8.07;;
25301;SDS011;13243;50.888;4.724;2023-02-28T05:09:50;29.67;;;8.38;;
25301;SDS011;13243;50.888;4.724;2023-02-28T05:14:54;22.13;;;8.80;;
25301;SDS011;13243;50.888;4.724;2023-02-28T05:19:56;16.38;;;7.53;;
25301;SDS011;13243;50.888;4.724;2023-02-28T05:25:16;20.92;;;8.10;;
25301;SDS011;13243;50.888;4.724;2023-02-28T05:30:19;15.23;;;8.73;;
25301;SDS011;13243;50.888;4.724;2023-02-28T05:35:21;22.70;;;8.65;;
25301;SDS011;13243;50.888;4.724;2023-02-28T05:40:23;18.30;;;9.25;;
25301;SDS011;13243;50.888;4.724;2023-02-28T05:45:25;18.77;;;9.65;;
25301;SDS011;13243;50.888;4.724;2023-02-28T05:50:27;19.33;;;9.70;;
25301;SDS011;13243;50.888;4.724;2023-02-28T05:55:29;23.52;;;9.40;;
25301;SDS011;13243;50.888;4.724;2023-02-28T06:00:31;18.70;;;9.63;;
25301;SDS011;13243;50.888;4.724;2023-02-28T06:05:32;20.85;;;8.90;;
25301;SDS011;13243;50.888;4.724;2023-02-28T06:10:34;25.75;;;10.05;;
25301;SDS011;13243;50.888;4.724;2023-02-28T06:15:36;16.75;;;8.90;;
25301;SDS011;13243;50.888;4.724;2023-02-28T06:20:38;17.15;;;9.50;;
25301;SDS011;13243;50.888;4.724;2023-02-28T06:25:44;20.20;;;9.40;;
25301;SDS011;13243;50.888;4.724;2023-02-28T06:30:46;28.27;;;8.38;;
25301;SDS011;13243;50.888;4.724;2023-02-28T06:35:51;17.60;;;9.77;;
25301;SDS011;13243;50.888;4.724;2023-02-28T06:40:54;21.00;;;9.30;;
25301;SDS011;13243;50.888;4.724;2023-02-28T06:45:58;17.45;;;9.38;;
25301;SDS011;13243;50.888;4.724;2023-02-28T06:51:08;20.75;;;10.30;;
25301;SDS011;13243;50.888;4.724;2023-02-28T06:56:15;20.30;;;9.98;;
25301;SDS011;13243;50.888;4.724;2023-02-28T07:01:18;20.45;;;10.02;;
25301;SDS011;13243;50.888;4.724;2023-02-28T07:06:21;20.73;;;10.25;;
25301;SDS011;13243;50.888;4.724;2023-02-28T07:11:26;18.50;;;8.93;;
25301;SDS011;13243;50.888;4.724;2023-02-28T07:16:30;17.05;;;9.15;;
25301;SDS011;13243;50.888;4.724;2023-02-28T07:21:32;19.30;;;8.90;;
25301;SDS011;13243;50.888;4.724;2023-02-28T07:26:34;17.73;;;8.93;;
25301;SDS011;13243;50.888;4.724;2023-02-28T07:31:36;14.73;;;8.15;;
25301;SDS011;13243;50.888;4.724;2023-02-28T07:36:38;12.80;;;7.70;;
25301;SDS011;13243;50.888;4.724;2023-02-28T07:41:39;15.40;;;7.93;;
25301;SDS011;13243;50.888;4.724;2023-02-28T07:46:44;16.02;;;8.88;;
25301;SDS011;13243;50.888;4.724;2023-02-28T07:51:46;14.68;;;9.18;;
25301;SDS011;13243;50.888;4.724;2023-02-28T07:56:48;12.50;;;7.68;;
25301;SDS011;13243;50.888;4.724;2023-02-28T08:01:50;16.13;;;7.15;;
25301;SDS011;13243;50.888;4.724;2023-02-28T08:06:52;10.35;;;6.72;;
25301;SDS011;13243;50.888;4.724;2023-02-28T08:11:54;10.23;;;6.55;;
25301;SDS011;13243;50.888;4.724;2023-02-28T08:16:56;11.95;;;6.05;;
25301;SDS011;13243;50.888;4.724;2023-02-28T08:21:58;10.52;;;6.13;;
25301;SDS011;13243;50.888;4.724;2023-02-28T08:27:00;10.18;;;6.45;;
25301;SDS011;13243;50.888;4.724;2023-02-28T08:32:03;11.77;;;5.13;;
25301;SDS011;13243;50.888;4.724;2023-02-28T08:37:06;9.13;;;5.25;;
25301;SDS011;13243;50.888;4.724;2023-02-28T08:42:07;12.85;;;6.15;;
25301;SDS011;13243;50.888;4.724;2023-02-28T08:47:09;11.05;;;5.22;;
25301;SDS011;13243;50.888;4.724;2023-02-28T08:52:11;12.82;;;5.32;;
25301;SDS011;13243;50.888;4.724;2023-02-28T08:57:13;9.10;;;5.47;;
25301;SDS011;13243;50.888;4.724;2023-02-28T09:02:15;13.95;;;4.93;;
25301;SDS011;13243;50.888;4.724;2023-02-28T09:07:17;6.32;;;4.22;;
25301;SDS011;13243;50.888;4.724;2023-02-28T09:12:25;11.52;;;5.35;;
25301;SDS011;13243;50.888;4.724;2023-02-28T09:17:28;9.95;;;4.47;;
25301;SDS011;13243;50.888;4.724;2023-02-28T09:22:31;7.30;;;4.00;;
25301;SDS011;13243;50.888;4.724;2023-02-28T09:27:33;9.05;;;4.72;;
25301;SDS011;13243;50.888;4.724;2023-02-28T09:32:35;9.40;;;3.97;;
25301;SDS011;13243;50.888;4.724;2023-02-28T09:37:37;10.50;;;4.05;;
25301;SDS011;13243;50.888;4.724;2023-02-28T09:42:39;9.52;;;3.33;;
25301;SDS011;13243;50.888;4.724;2023-02-28T09:47:41;13.25;;;3.20;;
25301;SDS011;13243;50.888;4.724;2023-02-28T09:52:48;6.43;;;2.88;;
25301;SDS011;13243;50.888;4.724;2023-02-28T09:57:51;5.30;;;2.78;;
25301;SDS011;13243;50.888;4.724;2023-02-28T10:03:03;4.63;;;3.15;;
25301;SDS011;13243;50.888;4.724;2023-02-28T10:08:17;6.07;;;2.92;;
25301;SDS011;13243;50.888;4.724;2023-02-28T10:18:41;7.45;;;2.60;;
25301;SDS011;13243;50.888;4.724;2023-02-28T10:23:48;4.75;;;2.70;;
25301;SDS011;13243;50.888;4.724;2023-02-28T10:28:54;5.10;;;2.85;;
25301;SDS011;13243;50.888;4.724;2023-02-28T10:33:55;5.70;;;2.88;;
25301;SDS011;13243;50.888;4.724;2023-02-28T10:38:57;5.18;;;3.83;;
25301;SDS011;13243;50.888;4.724;2023-02-28T10:49:35;5.22;;;2.58;;
25301;SDS011;13243;50.888;4.724;2023-02-28T10:54:40;6.88;;;2.97;;
25301;SDS011;13243;50.888;4.724;2023-02-28T10:59:42;6.50;;;2.72;;
25301;SDS011;13243;50.888;4.724;2023-02-28T11:04:45;6.18;;;2.90;;
25301;SDS011;13243;50.888;4.724;2023-02-28T11:09:52;5.50;;;2.72;;
25301;SDS011;13243;50.888;4.724;2023-02-28T11:15:06;4.75;;;2.60;;
25301;SDS011;13243;50.888;4.724;2023-02-28T11:20:29;4.35;;;2.10;;
25301;SDS011;13243;50.888;4.724;2023-02-28T11:25:37;5.30;;;2.58;;
25301;SDS011;13243;50.888;4.724;2023-02-28T11:30:40;4.65;;;1.83;;
25301;SDS011;13243;50.888;4.724;2023-02-28T11:35:43;3.38;;;2.17;;
25301;SDS011;13243;50.888;4.724;2023-02-28T11:40:52;4.93;;;1.88;;
25301;SDS011;13243;50.888;4.724;2023-02-28T11:51:47;5.55;;;2.35;;
25301;SDS011;13243;50.888;4.724;2023-02-28T11:57:21;6.90;;;2.50;;
25301;SDS011;13243;50.888;4.724;2023-02-28T12:02:31;4.22;;;2.60;;
25301;SDS011;13243;50.888;4.724;2023-02-28T12:07:45;3.38;;;2.40;;
25301;SDS011;13243;50.888;4.724;2023-02-28T12:13:26;3.33;;;2.38;;
25301;SDS011;13243;50.888;4.724;2023-02-28T12:24:03;3.65;;;2.38;;
25301;SDS011;13243;50.888;4.724;2023-02-28T12:29:28;3.92;;;2.45;;
25301;SDS011;13243;50.888;4.724;2023-02-28T12:34:33;4.00;;;2.40;;
25301;SDS011;13243;50.888;4.724;2023-02-28T12:39:41;6.10;;;2.53;;
25301;SDS011;13243;50.888;4.724;2023-02-28T12:44:52;2.90;;;1.65;;
25301;SDS011;13243;50.888;4.724;2023-02-28T12:50:05;4.00;;;2.25;;
25301;SDS011;13243;50.888;4.724;2023-02-28T13:11:52;5.15;;;2.70;;
25301;SDS011;13243;50.888;4.724;2023-02-28T13:22:45;3.35;;;2.25;;
25301;SDS011;13243;50.888;4.724;2023-02-28T13:27:40;3.30;;;2.60;;
25301;SDS011;13243;50.888;4.724;2023-02-28T13:32:43;2.92;;;2.22;;
25301;SDS011;13243;50.888;4.724;2023-02-28T13:37:47;4.63;;;2.15;;
25301;SDS011;13243;50.888;4.724;2023-02-28T13:42:51;3.33;;;2.42;;
25301;SDS011;13243;50.888;4.724;2023-02-28T13:48:00;2.20;;;1.90;;
25301;SDS011;13243;50.888;4.724;2023-02-28T13:53:21;3.77;;;2.73;;
25301;SDS011;13243;50.888;4.724;2023-02-28T14:30:13;5.63;;;2.90;;
25301;SDS011;13243;50.888;4.724;2023-02-28T14:41:05;5.43;;;3.40;;
25301;SDS011;13243;50.888;4.724;2023-02-28T14:46:15;2.67;;;2.40;;
25301;SDS011;13243;50.888;4.724;2023-02-28T14:51:20;3.13;;;2.67;;
25301;SDS011;13243;50.888;4.724;2023-02-28T14:56:28;9.93;;;2.97;;
25301;SDS011;13243;50.888;4.724;2023-02-28T15:01:36;5.28;;;3.08;;
25301;SDS011;13243;50.888;4.724;2023-02-28T15:06:38;3.58;;;2.53;;
25301;SDS011;13243;50.888;4.724;2023-02-28T15:11:40;4.80;;;2.63;;
25301;SDS011;13243;50.888;4.724;2023-02-28T15:16:43;8.77;;;2.80;;
25301;SDS011;13243;50.888;4.724;2023-02-28T15:21:52;3.58;;;2.55;;
25301;SDS011;13243;50.888;4.724;2023-02-28T15:27:03;3.35;;;2.85;;
25301;SDS011;13243;50.888;4.724;2023-02-28T15:32:16;3.83;;;2.63;;
25301;SDS011;13243;50.888;4.724;2023-02-28T15:42:39;3.72;;;2.60;;
25301;SDS011;13243;50.888;4.724;2023-02-28T15:47:44;4.93;;;3.20;;
25301;SDS011;13243;50.888;4.724;2023-02-28T15:52:47;3.75;;;2.50;;
25301;SDS011;13243;50.888;4.724;2023-02-28T15:57:50;2.78;;;2.30;;
25301;SDS011;13243;50.888;4.724;2023-02-28T16:02:53;3.35;;;2.45;;
25301;SDS011;13243;50.888;4.724;2023-02-28T16:07:56;3.53;;;2.60;;
25301;SDS011;13243;50.888;4.724;2023-02-28T16:13:02;2.65;;;2.20;;
25301;SDS011;13243;50.888;4.724;2023-02-28T16:18:04;3.45;;;2.60;;
25301;SDS011;13243;50.888;4.724;2023-02-28T16:23:06;4.68;;;2.45;;
25301;SDS011;13243;50.888;4.724;2023-02-28T16:28:14;3.90;;;2.50;;
25301;SDS011;13243;50.888;4.724;2023-02-28T16:33:25;3.60;;;2.55;;
25301;SDS011;13243;50.888;4.724;2023-02-28T16:38:27;4.13;;;2.85;;
25301;SDS011;13243;50.888;4.724;2023-02-28T16:43:29;4.53;;;2.60;;
25301;SDS011;13243;50.888;4.724;2023-02-28T16:48:31;4.95;;;2.58;;
25301;SDS011;13243;50.888;4.724;2023-02-28T16:53:33;4.55;;;2.95;;
25301;SDS011;13243;50.888;4.724;2023-02-28T16:58:35;4.07;;;2.60;;
25301;SDS011;13243;50.888;4.724;2023-02-28T17:03:37;6.40;;;2.72;;
25301;SDS011;13243;50.888;4.724;2023-02-28T17:08:41;4.88;;;2.83;;
25301;SDS011;13243;50.888;4.724;2023-02-28T17:13:43;4.43;;;3.05;;
25301;SDS011;13243;50.888;4.724;2023-02-28T17:18:45;5.50;;;3.22;;
25301;SDS011;13243;50.888;4.724;2023-02-28T17:23:47;5.10;;;3.22;;
25301;SDS011;13243;50.888;4.724;2023-02-28T17:28:49;8.10;;;3.90;;
25301;SDS011;13243;50.888;4.724;2023-02-28T17:33:56;7.93;;;4.05;;
25301;SDS011;13243;50.888;4.724;2023-02-28T17:38:59;12.02;;;5.53;;
25301;SDS011;13243;50.888;4.724;2023-02-28T17:44:02;5.82;;;3.75;;
25301;SDS011;13243;50.888;4.724;2023-02-28T17:49:04;9.20;;;3.45;;
25301;SDS011;13243;50.888;4.724;2023-02-28T17:54:06;8.45;;;3.42;;
25301;SDS011;13243;50.888;4.724;2023-02-28T17:59:08;7.38;;;3.90;;
25301;SDS011;13243;50.888;4.724;2023-02-28T18:04:11;6.38;;;3.97;;
25301;SDS011;13243;50.888;4.724;2023-02-28T18:09:14;6.70;;;3.35;;
25301;SDS011;13243;50.888;4.724;2023-02-28T18:14:24;8.27;;;3.20;;
25301;SDS011;13243;50.888;4.724;2023-02-28T18:19:26;5.72;;;3.30;;
25301;SDS011;13243;50.888;4.724;2023-02-28T18:24:28;6.15;;;3.60;;
25301;SDS011;13243;50.888;4.724;2023-02-28T18:29:30;9.48;;;4.18;;
25301;SDS011;13243;50.888;4.724;2023-02-28T18:34:33;9.25;;;3.70;;
25301;SDS011;13243;50.888;4.724;2023-02-28T18:39:35;9.88;;;4.85;;
25301;SDS011;13243;50.888;4.724;2023-02-28T18:44:37;6.40;;;4.00;;
25301;SDS011;13243;50.888;4.724;2023-02-28T18:49:39;6.53;;;3.63;;
25301;SDS011;13243;50.888;4.724;2023-02-28T18:54:41;7.93;;;4.35;;
25301;SDS011;13243;50.888;4.724;2023-02-28T18:59:43;12.13;;;5.40;;
25301;SDS011;13243;50.888;4.724;2023-02-28T19:04:45;14.00;;;4.78;;
25301;SDS011;13243;50.888;4.724;2023-02-28T19:09:47;10.40;;;5.45;;
25301;SDS011;13243;50.888;4.724;2023-02-28T19:14:48;8.50;;;4.95;;
25301;SDS011;13243;50.888;4.724;2023-02-28T19:19:51;7.97;;;4.95;;
25301;SDS011;13243;50.888;4.724;2023-02-28T19:24:53;12.88;;;6.03;;
25301;SDS011;13243;50.888;4.724;2023-02-28T19:29:56;8.68;;;5.50;;
25301;SDS011;13243;50.888;4.724;2023-02-28T19:34:59;12.65;;;5.72;;
25301;SDS011;13243;50.888;4.724;2023-02-28T19:40:01;11.50;;;6.00;;
25301;SDS011;13243;50.888;4.724;2023-02-28T19:45:03;9.90;;;6.00;;
25301;SDS011;13243;50.888;4.724;2023-02-28T19:50:07;12.55;;;5.95;;
25301;SDS011;13243;50.888;4.724;2023-02-28T19:55:10;12.88;;;7.00;;
25301;SDS011;13243;50.888;4.724;2023-02-28T20:00:14;9.75;;;5.75;;
25301;SDS011;13243;50.888;4.724;2023-02-28T20:05:16;11.50;;;5.78;;
25301;SDS011;13243;50.888;4.724;2023-02-28T20:10:18;10.43;;;6.55;;
25301;SDS011;13243;50.888;4.724;2023-02-28T20:15:20;12.85;;;6.38;;
25301;SDS011;13243;50.888;4.724;2023-02-28T20:20:22;13.38;;;6.72;;
25301;SDS011;13243;50.888;4.724;2023-02-28T20:25:25;15.30;;;7.03;;
25301;SDS011;13243;50.888;4.724;2023-02-28T20:30:28;9.25;;;5.88;;
25301;SDS011;13243;50.888;4.724;2023-02-28T20:35:30;13.52;;;6.93;;
25301;SDS011;13243;50.888;4.724;2023-02-28T20:40:32;11.10;;;7.13;;
25301;SDS011;13243;50.888;4.724;2023-02-28T20:45:34;16.45;;;7.38;;
25301;SDS011;13243;50.888;4.724;2023-02-28T20:50:36;14.88;;;7.20;;
25301;SDS011;13243;50.888;4.724;2023-02-28T20:55:37;11.20;;;6.60;;
25301;SDS011;13243;50.888;4.724;2023-02-28T21:00:39;11.13;;;6.68;;
25301;SDS011;13243;50.888;4.724;2023-02-28T21:05:41;11.45;;;6.80;;
25301;SDS011;13243;50.888;4.724;2023-02-28T21:10:43;14.57;;;7.68;;
25301;SDS011;13243;50.888;4.724;2023-02-28T21:15:45;14.75;;;7.72;;
25301;SDS011;13243;50.888;4.724;2023-02-28T21:20:47;15.00;;;8.10;;
25301;SDS011;13243;50.888;4.724;2023-02-28T21:25:49;20.77;;;8.68;;
25301;SDS011;13243;50.888;4.724;2023-02-28T21:30:51;15.18;;;8.00;;
25301;SDS011;13243;50.888;4.724;2023-02-28T21:35:58;22.48;;;8.38;;
25301;SDS011;13243;50.888;4.724;2023-02-28T21:41:02;16.05;;;7.72;;
25301;SDS011;13243;50.888;4.724;2023-02-28T21:46:12;13.15;;;6.60;;
25301;SDS011;13243;50.888;4.724;2023-02-28T21:51:17;16.08;;;8.55;;
25301;SDS011;13243;50.888;4.724;2023-02-28T21:56:24;17.65;;;9.60;;
25301;SDS011;13243;50.888;4.724;2023-02-28T22:01:37;16.08;;;8.60;;
25301;SDS011;13243;50.888;4.724;2023-02-28T22:06:50;11.77;;;7.20;;
25301;SDS011;13243;50.888;4.724;2023-02-28T22:11:54;16.13;;;8.88;;
25301;SDS011;13243;50.888;4.724;2023-02-28T22:16:57;20.58;;;9.57;;
25301;SDS011;13243;50.888;4.724;2023-02-28T22:21:59;19.77;;;9.68;;
25301;SDS011;13243;50.888;4.724;2023-02-28T22:27:01;23.65;;;10.55;;
25301;SDS011;13243;50.888;4.724;2023-02-28T22:32:07;21.42;;;10.85;;
25301;SDS011;13243;50.888;4.724;2023-02-28T22:37:10;20.55;;;10.52;;
25301;SDS011;13243;50.888;4.724;2023-02-28T22:42:11;25.02;;;11.25;;
25301;SDS011;13243;50.888;4.724;2023-02-28T22:47:14;19.95;;;10.18;;
25301;SDS011;13243;50.888;4.724;2023-02-28T22:52:16;23.17;;;10.82;;
25301;SDS011;13243;50.888;4.724;2023-02-28T22:57:18;22.65;;;11.50;;
25301;SDS011;13243;50.888;4.724;2023-02-28T23:02:20;21.52;;;11.32;;
25301;SDS011;13243;50.888;4.724;2023-02-28T23:07:22;24.70;;;12.40;;
25301;SDS011;13243;50.888;4.724;2023-02-28T23:12:24;23.92;;;11.85;;
25301;SDS011;13243;50.888;4.724;2023-02-28T23:17:27;44.10;;;14.00;;
25301;SDS011;13243;50.888;4.724;2023-02-28T23:22:31;22.88;;;11.25;;
25301;SDS011;13243;50.888;4.724;2023-02-28T23:27:33;22.23;;;11.05;;
25301;SDS011;13243;50.888;4.724;2023-02-28T23:32:38;20.90;;;11.38;;
25301;SDS011;13243;50.888;4.724;2023-02-28T23:37:41;23.27;;;12.25;;
25301;SDS011;13243;50.888;4.724;2023-02-28T23:42:43;22.73;;;12.13;;
25301;SDS011;13243;50.888;4.724;2023-02-28T23:47:45;17.98;;;10.88;;
25301;SDS011;13243;50.888;4.724;2023-02-28T23:52:47;22.23;;;11.85;;
25301;SDS011;13243;50.888;4.724;2023-02-28T23:57:49;23.02;;;12.25;;
